DIAP

Port Bouet Airport

Abidjan, Côte D’Ivoire
METAR DIAP 231600Z 22012KT 9999 SCT012 30/26 Q1007 NOSIG
Observed Flight Rules
Feb-23 @ 16:00 UTC (40 minutes ago) Visual Flight Rules
Wind Visibility Clouds
220° at 12 knots 10,000+ meters
  • Scattered at 1,200' AGL
Temperatures Readings
Current 30°C / 86°F
Dewpoint 26°C / 79°F
Humidity 79%
Altimeter 29.73" Hg
Pressure 1007 hPa
Elevation 8
METAR DIAP 231600Z 22012KT 9999 SCT012 30/26 Q1007 NOSIG
Observed Flight Rules
Feb-23 @ 16:00 UTC
(40 minutes ago)
VFR
Wind Visibility
220° at 12 knots 10,000+ meters
Clouds
  • Scattered at 1,200' AGL
Temperature Dewpoint
30°C / 86°F 26°C / 79°F
Humidity Altimeter Pressure
79% 29.73" Hg 1007 hPa